sensor_id;sensor_type;location;lat;lon;timestamp;temperature;humidity
7516;DHT22;3799;47.184;8.538;2022-12-07T00:01:40;3.60;99.90
7516;DHT22;3799;47.184;8.538;2022-12-07T00:04:07;3.60;99.90
7516;DHT22;3799;47.184;8.538;2022-12-07T00:09:02;3.70;99.90
7516;DHT22;3799;47.184;8.538;2022-12-07T00:11:28;3.70;99.90
7516;DHT22;3799;47.184;8.538;2022-12-07T00:13:56;3.80;99.90
7516;DHT22;3799;47.184;8.538;2022-12-07T00:16:23;3.90;99.90
7516;DHT22;3799;47.184;8.538;2022-12-07T00:18:49;3.70;99.90
7516;DHT22;3799;47.184;8.538;2022-12-07T00:21:16;3.80;99.90
7516;DHT22;3799;47.184;8.538;2022-12-07T00:23:43;3.80;99.90
7516;DHT22;3799;47.184;8.538;2022-12-07T00:26:10;4.00;99.90
7516;DHT22;3799;47.184;8.538;2022-12-07T00:28:36;3.80;99.90
7516;DHT22;3799;47.184;8.538;2022-12-07T00:31:03;4.00;99.90
7516;DHT22;3799;47.184;8.538;2022-12-07T00:33:29;3.70;99.90
7516;DHT22;3799;47.184;8.538;2022-12-07T00:35:55;3.80;99.90
7516;DHT22;3799;47.184;8.538;2022-12-07T00:38:21;3.80;99.90
7516;DHT22;3799;47.184;8.538;2022-12-07T00:40:53;3.70;99.90
7516;DHT22;3799;47.184;8.538;2022-12-07T00:43:19;3.90;99.90
7516;DHT22;3799;47.184;8.538;2022-12-07T00:45:44;3.90;99.90
7516;DHT22;3799;47.184;8.538;2022-12-07T00:48:10;3.90;99.90
7516;DHT22;3799;47.184;8.538;2022-12-07T00:50:35;3.60;99.90
7516;DHT22;3799;47.184;8.538;2022-12-07T00:53:01;3.90;99.90
7516;DHT22;3799;47.184;8.538;2022-12-07T00:55:27;3.70;99.90
7516;DHT22;3799;47.184;8.538;2022-12-07T00:57:52;3.40;99.90
7516;DHT22;3799;47.184;8.538;2022-12-07T01:00:18;3.30;99.90
7516;DHT22;3799;47.184;8.538;2022-12-07T01:02:43;3.30;99.90
7516;DHT22;3799;47.184;8.538;2022-12-07T01:05:09;3.40;99.90
7516;DHT22;3799;47.184;8.538;2022-12-07T01:07:35;3.40;99.90
7516;DHT22;3799;47.184;8.538;2022-12-07T01:10:00;3.50;99.90
7516;DHT22;3799;47.184;8.538;2022-12-07T01:12:26;3.40;99.90
7516;DHT22;3799;47.184;8.538;2022-12-07T01:14:52;3.50;99.90
7516;DHT22;3799;47.184;8.538;2022-12-07T01:17:17;3.40;99.90
7516;DHT22;3799;47.184;8.538;2022-12-07T01:19:43;3.50;99.90
7516;DHT22;3799;47.184;8.538;2022-12-07T01:22:08;3.40;99.90
7516;DHT22;3799;47.184;8.538;2022-12-07T01:24:34;3.50;99.90
7516;DHT22;3799;47.184;8.538;2022-12-07T01:26:59;3.30;99.90
7516;DHT22;3799;47.184;8.538;2022-12-07T01:29:25;3.70;99.90
7516;DHT22;3799;47.184;8.538;2022-12-07T01:31:51;3.50;99.90
7516;DHT22;3799;47.184;8.538;2022-12-07T01:34:16;3.60;99.90
7516;DHT22;3799;47.184;8.538;2022-12-07T01:36:42;3.40;99.90
7516;DHT22;3799;47.184;8.538;2022-12-07T01:39:08;3.70;99.90
7516;DHT22;3799;47.184;8.538;2022-12-07T01:41:35;3.70;99.90
7516;DHT22;3799;47.184;8.538;2022-12-07T01:44:21;3.70;99.90
7516;DHT22;3799;47.184;8.538;2022-12-07T01:46:57;3.70;99.90
7516;DHT22;3799;47.184;8.538;2022-12-07T01:49:33;3.60;99.90
7516;DHT22;3799;47.184;8.538;2022-12-07T01:54:35;3.70;99.90
7516;DHT22;3799;47.184;8.538;2022-12-07T01:57:01;3.70;99.90
7516;DHT22;3799;47.184;8.538;2022-12-07T01:59:27;3.70;99.90
7516;DHT22;3799;47.184;8.538;2022-12-07T02:01:54;3.80;99.90
7516;DHT22;3799;47.184;8.538;2022-12-07T02:04:19;3.90;99.90
7516;DHT22;3799;47.184;8.538;2022-12-07T02:06:46;3.80;99.90
7516;DHT22;3799;47.184;8.538;2022-12-07T02:09:12;3.90;99.90
7516;DHT22;3799;47.184;8.538;2022-12-07T02:11:37;3.90;99.90
7516;DHT22;3799;47.184;8.538;2022-12-07T02:14:03;4.00;99.90
7516;DHT22;3799;47.184;8.538;2022-12-07T02:16:47;4.00;99.90
7516;DHT22;3799;47.184;8.538;2022-12-07T02:24:19;3.70;99.90
7516;DHT22;3799;47.184;8.538;2022-12-07T02:32:04;3.70;99.90
7516;DHT22;3799;47.184;8.538;2022-12-07T02:34:35;3.90;99.90
7516;DHT22;3799;47.184;8.538;2022-12-07T02:37:09;4.00;99.90
7516;DHT22;3799;47.184;8.538;2022-12-07T02:39:43;3.80;99.90
7516;DHT22;3799;47.184;8.538;2022-12-07T02:42:13;3.60;99.90
7516;DHT22;3799;47.184;8.538;2022-12-07T02:44:40;3.80;99.90
7516;DHT22;3799;47.184;8.538;2022-12-07T02:47:07;3.70;99.90
7516;DHT22;3799;47.184;8.538;2022-12-07T02:49:34;3.70;99.90
7516;DHT22;3799;47.184;8.538;2022-12-07T02:52:01;3.80;99.90
7516;DHT22;3799;47.184;8.538;2022-12-07T02:54:27;3.80;99.90
7516;DHT22;3799;47.184;8.538;2022-12-07T03:12:36;3.70;99.90
7516;DHT22;3799;47.184;8.538;2022-12-07T03:15:07;3.70;99.90
7516;DHT22;3799;47.184;8.538;2022-12-07T03:17:36;3.50;99.90
7516;DHT22;3799;47.184;8.538;2022-12-07T03:20:04;3.60;99.90
7516;DHT22;3799;47.184;8.538;2022-12-07T03:22:31;3.30;99.90
7516;DHT22;3799;47.184;8.538;2022-12-07T03:25:00;3.50;99.90
7516;DHT22;3799;47.184;8.538;2022-12-07T03:27:28;3.60;99.90
7516;DHT22;3799;47.184;8.538;2022-12-07T03:30:06;3.50;99.90
7516;DHT22;3799;47.184;8.538;2022-12-07T03:32:34;3.70;99.90
7516;DHT22;3799;47.184;8.538;2022-12-07T03:35:05;3.80;99.90
7516;DHT22;3799;47.184;8.538;2022-12-07T03:37:43;3.60;99.90
7516;DHT22;3799;47.184;8.538;2022-12-07T03:42:36;3.80;99.90
7516;DHT22;3799;47.184;8.538;2022-12-07T03:45:02;3.80;99.90
7516;DHT22;3799;47.184;8.538;2022-12-07T03:47:35;3.80;99.90
7516;DHT22;3799;47.184;8.538;2022-12-07T03:52:39;3.60;99.90
7516;DHT22;3799;47.184;8.538;2022-12-07T03:55:10;3.60;99.90
7516;DHT22;3799;47.184;8.538;2022-12-07T03:57:37;3.50;99.90
7516;DHT22;3799;47.184;8.538;2022-12-07T04:00:05;3.80;99.90
7516;DHT22;3799;47.184;8.538;2022-12-07T04:02:31;3.70;99.90
7516;DHT22;3799;47.184;8.538;2022-12-07T04:04:57;3.80;99.90
7516;DHT22;3799;47.184;8.538;2022-12-07T04:07:22;3.60;99.90
7516;DHT22;3799;47.184;8.538;2022-12-07T04:09:48;3.80;99.90
7516;DHT22;3799;47.184;8.538;2022-12-07T04:12:14;3.70;99.90
7516;DHT22;3799;47.184;8.538;2022-12-07T04:14:39;3.70;99.90
7516;DHT22;3799;47.184;8.538;2022-12-07T04:17:05;3.40;99.90
7516;DHT22;3799;47.184;8.538;2022-12-07T04:19:31;3.60;99.90
7516;DHT22;3799;47.184;8.538;2022-12-07T04:21:57;3.60;99.90
7516;DHT22;3799;47.184;8.538;2022-12-07T04:24:23;3.60;99.90
7516;DHT22;3799;47.184;8.538;2022-12-07T04:26:49;3.80;99.90
7516;DHT22;3799;47.184;8.538;2022-12-07T04:29:15;3.60;99.90
7516;DHT22;3799;47.184;8.538;2022-12-07T04:31:41;3.70;99.90
7516;DHT22;3799;47.184;8.538;2022-12-07T04:34:07;3.70;99.90
7516;DHT22;3799;47.184;8.538;2022-12-07T04:36:32;3.80;99.90
7516;DHT22;3799;47.184;8.538;2022-12-07T04:38:58;3.80;99.90
7516;DHT22;3799;47.184;8.538;2022-12-07T04:41:24;3.80;99.90
7516;DHT22;3799;47.184;8.538;2022-12-07T04:43:56;4.00;99.90
7516;DHT22;3799;47.184;8.538;2022-12-07T04:46:22;3.80;99.90
7516;DHT22;3799;47.184;8.538;2022-12-07T04:48:49;3.70;99.90
7516;DHT22;3799;47.184;8.538;2022-12-07T04:51:19;3.90;99.90
7516;DHT22;3799;47.184;8.538;2022-12-07T04:53:45;3.90;99.90
7516;DHT22;3799;47.184;8.538;2022-12-07T04:56:10;3.60;99.90
7516;DHT22;3799;47.184;8.538;2022-12-07T04:58:36;3.60;99.90
7516;DHT22;3799;47.184;8.538;2022-12-07T05:01:01;3.70;99.90
7516;DHT22;3799;47.184;8.538;2022-12-07T05:03:28;3.60;99.90
7516;DHT22;3799;47.184;8.538;2022-12-07T05:05:53;3.80;99.90
7516;DHT22;3799;47.184;8.538;2022-12-07T05:08:19;3.70;99.90
7516;DHT22;3799;47.184;8.538;2022-12-07T05:10:44;3.80;99.90
7516;DHT22;3799;47.184;8.538;2022-12-07T05:13:10;3.80;99.90
7516;DHT22;3799;47.184;8.538;2022-12-07T05:15:36;3.70;99.90
7516;DHT22;3799;47.184;8.538;2022-12-07T05:18:01;3.60;99.90
7516;DHT22;3799;47.184;8.538;2022-12-07T05:20:28;3.90;99.90
7516;DHT22;3799;47.184;8.538;2022-12-07T05:22:54;3.50;99.90
7516;DHT22;3799;47.184;8.538;2022-12-07T05:25:19;3.90;99.90
7516;DHT22;3799;47.184;8.538;2022-12-07T05:27:45;3.70;99.90
7516;DHT22;3799;47.184;8.538;2022-12-07T05:30:11;3.80;99.90
7516;DHT22;3799;47.184;8.538;2022-12-07T05:32:36;3.60;99.90
7516;DHT22;3799;47.184;8.538;2022-12-07T05:35:05;3.70;99.90
7516;DHT22;3799;47.184;8.538;2022-12-07T05:37:30;3.70;99.90
7516;DHT22;3799;47.184;8.538;2022-12-07T05:39:57;3.50;99.90
7516;DHT22;3799;47.184;8.538;2022-12-07T05:42:22;3.50;99.90
7516;DHT22;3799;47.184;8.538;2022-12-07T05:44:48;3.70;99.90
7516;DHT22;3799;47.184;8.538;2022-12-07T05:47:14;3.80;99.90
7516;DHT22;3799;47.184;8.538;2022-12-07T05:49:40;3.60;99.90
7516;DHT22;3799;47.184;8.538;2022-12-07T05:52:06;3.70;99.90
7516;DHT22;3799;47.184;8.538;2022-12-07T05:54:31;3.80;99.90
7516;DHT22;3799;47.184;8.538;2022-12-07T05:56:57;3.70;99.90
7516;DHT22;3799;47.184;8.538;2022-12-07T05:59:23;3.80;99.90
7516;DHT22;3799;47.184;8.538;2022-12-07T06:01:54;3.70;99.90
7516;DHT22;3799;47.184;8.538;2022-12-07T06:04:21;3.80;99.90
7516;DHT22;3799;47.184;8.538;2022-12-07T06:06:47;3.70;99.90
7516;DHT22;3799;47.184;8.538;2022-12-07T06:09:13;3.70;99.90
7516;DHT22;3799;47.184;8.538;2022-12-07T06:11:39;3.70;99.90
7516;DHT22;3799;47.184;8.538;2022-12-07T06:14:23;3.80;99.90
7516;DHT22;3799;47.184;8.538;2022-12-07T06:16:48;3.70;99.90
7516;DHT22;3799;47.184;8.538;2022-12-07T06:19:14;3.80;99.90
7516;DHT22;3799;47.184;8.538;2022-12-07T06:21:40;3.70;99.90
7516;DHT22;3799;47.184;8.538;2022-12-07T06:24:06;3.70;99.90
7516;DHT22;3799;47.184;8.538;2022-12-07T06:26:31;3.70;99.90
7516;DHT22;3799;47.184;8.538;2022-12-07T06:28:57;3.70;99.90
7516;DHT22;3799;47.184;8.538;2022-12-07T06:31:23;3.80;99.90
7516;DHT22;3799;47.184;8.538;2022-12-07T06:33:48;3.80;99.90
7516;DHT22;3799;47.184;8.538;2022-12-07T06:36:14;3.70;99.90
7516;DHT22;3799;47.184;8.538;2022-12-07T06:38:40;3.80;99.90
7516;DHT22;3799;47.184;8.538;2022-12-07T06:41:05;3.80;99.90
7516;DHT22;3799;47.184;8.538;2022-12-07T06:43:32;3.70;99.90
7516;DHT22;3799;47.184;8.538;2022-12-07T06:45:57;3.80;99.90
7516;DHT22;3799;47.184;8.538;2022-12-07T06:48:23;3.50;99.90
7516;DHT22;3799;47.184;8.538;2022-12-07T06:50:49;3.80;99.90
7516;DHT22;3799;47.184;8.538;2022-12-07T06:53:14;3.60;99.90
7516;DHT22;3799;47.184;8.538;2022-12-07T06:55:40;4.00;99.90
7516;DHT22;3799;47.184;8.538;2022-12-07T06:58:06;4.20;99.90
7516;DHT22;3799;47.184;8.538;2022-12-07T07:00:32;4.10;99.90
7516;DHT22;3799;47.184;8.538;2022-12-07T07:03:00;4.00;99.90
7516;DHT22;3799;47.184;8.538;2022-12-07T07:05:26;4.20;99.90
7516;DHT22;3799;47.184;8.538;2022-12-07T07:07:51;3.90;99.90
7516;DHT22;3799;47.184;8.538;2022-12-07T07:10:17;4.10;99.90
7516;DHT22;3799;47.184;8.538;2022-12-07T07:12:43;3.90;99.90
7516;DHT22;3799;47.184;8.538;2022-12-07T07:15:08;4.00;99.90
7516;DHT22;3799;47.184;8.538;2022-12-07T07:17:35;3.70;99.90
7516;DHT22;3799;47.184;8.538;2022-12-07T07:20:00;3.70;99.90
7516;DHT22;3799;47.184;8.538;2022-12-07T07:22:26;3.50;99.90
7516;DHT22;3799;47.184;8.538;2022-12-07T07:24:52;3.70;99.90
7516;DHT22;3799;47.184;8.538;2022-12-07T07:27:17;3.70;99.90
7516;DHT22;3799;47.184;8.538;2022-12-07T07:29:43;3.80;99.90
7516;DHT22;3799;47.184;8.538;2022-12-07T07:32:08;3.70;99.90
7516;DHT22;3799;47.184;8.538;2022-12-07T07:34:34;3.50;99.90
7516;DHT22;3799;47.184;8.538;2022-12-07T07:37:00;3.60;99.90
7516;DHT22;3799;47.184;8.538;2022-12-07T07:39:26;3.60;99.90
7516;DHT22;3799;47.184;8.538;2022-12-07T07:41:51;3.90;99.90
7516;DHT22;3799;47.184;8.538;2022-12-07T07:44:17;3.80;99.90
7516;DHT22;3799;47.184;8.538;2022-12-07T07:46:43;3.80;99.90
7516;DHT22;3799;47.184;8.538;2022-12-07T07:49:09;4.00;99.90
7516;DHT22;3799;47.184;8.538;2022-12-07T07:51:35;3.90;99.90
7516;DHT22;3799;47.184;8.538;2022-12-07T07:54:00;3.80;99.90
7516;DHT22;3799;47.184;8.538;2022-12-07T07:56:26;3.90;99.90
7516;DHT22;3799;47.184;8.538;2022-12-07T07:58:52;3.90;99.90
7516;DHT22;3799;47.184;8.538;2022-12-07T08:01:17;3.90;99.90
7516;DHT22;3799;47.184;8.538;2022-12-07T08:03:48;3.80;99.90
7516;DHT22;3799;47.184;8.538;2022-12-07T08:06:13;4.00;99.90
7516;DHT22;3799;47.184;8.538;2022-12-07T08:08:39;3.90;99.90
7516;DHT22;3799;47.184;8.538;2022-12-07T08:11:05;4.10;99.90
7516;DHT22;3799;47.184;8.538;2022-12-07T08:13:31;3.80;99.90
7516;DHT22;3799;47.184;8.538;2022-12-07T08:15:56;4.10;99.90
7516;DHT22;3799;47.184;8.538;2022-12-07T08:18:22;4.00;99.90
7516;DHT22;3799;47.184;8.538;2022-12-07T08:20:48;4.00;99.90
7516;DHT22;3799;47.184;8.538;2022-12-07T08:23:15;4.00;99.90
7516;DHT22;3799;47.184;8.538;2022-12-07T08:25:41;4.00;99.90
7516;DHT22;3799;47.184;8.538;2022-12-07T08:28:07;4.10;99.90
7516;DHT22;3799;47.184;8.538;2022-12-07T08:30:33;4.10;99.90
7516;DHT22;3799;47.184;8.538;2022-12-07T08:32:58;3.90;99.90
7516;DHT22;3799;47.184;8.538;2022-12-07T08:35:24;4.10;99.90
7516;DHT22;3799;47.184;8.538;2022-12-07T08:37:50;4.10;99.90
7516;DHT22;3799;47.184;8.538;2022-12-07T08:40:19;4.30;99.90
7516;DHT22;3799;47.184;8.538;2022-12-07T08:42:49;4.10;99.90
7516;DHT22;3799;47.184;8.538;2022-12-07T08:45:15;4.30;99.90
7516;DHT22;3799;47.184;8.538;2022-12-07T08:48:23;4.10;99.90
7516;DHT22;3799;47.184;8.538;2022-12-07T08:50:30;4.30;99.90
7516;DHT22;3799;47.184;8.538;2022-12-07T08:52:56;4.20;99.90
7516;DHT22;3799;47.184;8.538;2022-12-07T08:55:23;4.10;99.90
7516;DHT22;3799;47.184;8.538;2022-12-07T08:57:48;4.30;99.90
7516;DHT22;3799;47.184;8.538;2022-12-07T09:00:14;4.00;99.90
7516;DHT22;3799;47.184;8.538;2022-12-07T09:02:43;4.40;99.90
7516;DHT22;3799;47.184;8.538;2022-12-07T09:05:09;4.30;99.90
7516;DHT22;3799;47.184;8.538;2022-12-07T09:07:35;4.40;99.90
7516;DHT22;3799;47.184;8.538;2022-12-07T09:10:01;4.30;99.90
7516;DHT22;3799;47.184;8.538;2022-12-07T09:12:27;4.40;99.90
7516;DHT22;3799;47.184;8.538;2022-12-07T09:14:52;4.40;99.90
7516;DHT22;3799;47.184;8.538;2022-12-07T09:17:21;4.50;99.90
7516;DHT22;3799;47.184;8.538;2022-12-07T09:19:47;4.40;99.90
7516;DHT22;3799;47.184;8.538;2022-12-07T09:22:12;4.30;99.90
7516;DHT22;3799;47.184;8.538;2022-12-07T09:24:38;4.70;99.90
7516;DHT22;3799;47.184;8.538;2022-12-07T09:27:04;4.30;99.90
7516;DHT22;3799;47.184;8.538;2022-12-07T09:29:30;4.70;99.90
7516;DHT22;3799;47.184;8.538;2022-12-07T09:31:55;4.40;99.90
7516;DHT22;3799;47.184;8.538;2022-12-07T09:34:24;4.40;99.90
7516;DHT22;3799;47.184;8.538;2022-12-07T09:36:51;4.40;99.90
7516;DHT22;3799;47.184;8.538;2022-12-07T09:39:17;4.40;99.90
7516;DHT22;3799;47.184;8.538;2022-12-07T09:41:43;4.50;99.90
7516;DHT22;3799;47.184;8.538;2022-12-07T09:44:11;4.60;99.90
7516;DHT22;3799;47.184;8.538;2022-12-07T09:46:39;4.60;99.90
7516;DHT22;3799;47.184;8.538;2022-12-07T09:49:05;4.70;99.90
7516;DHT22;3799;47.184;8.538;2022-12-07T09:51:34;4.40;99.90
7516;DHT22;3799;47.184;8.538;2022-12-07T09:54:02;4.30;99.90
7516;DHT22;3799;47.184;8.538;2022-12-07T09:56:28;4.40;99.90
7516;DHT22;3799;47.184;8.538;2022-12-07T09:58:59;4.50;99.90
7516;DHT22;3799;47.184;8.538;2022-12-07T10:01:30;4.70;99.90
7516;DHT22;3799;47.184;8.538;2022-12-07T10:04:39;4.60;99.90
7516;DHT22;3799;47.184;8.538;2022-12-07T10:06:46;4.60;99.90
7516;DHT22;3799;47.184;8.538;2022-12-07T10:09:14;4.60;99.90
7516;DHT22;3799;47.184;8.538;2022-12-07T10:12:02;4.40;99.90
7516;DHT22;3799;47.184;8.538;2022-12-07T10:14:29;4.40;99.90
7516;DHT22;3799;47.184;8.538;2022-12-07T10:16:55;4.50;99.90
7516;DHT22;3799;47.184;8.538;2022-12-07T10:19:25;4.30;99.90
7516;DHT22;3799;47.184;8.538;2022-12-07T10:24:29;4.60;99.90
7516;DHT22;3799;47.184;8.538;2022-12-07T10:26:55;4.50;99.90
7516;DHT22;3799;47.184;8.538;2022-12-07T10:32:06;4.70;99.90
7516;DHT22;3799;47.184;8.538;2022-12-07T10:34:47;4.70;99.90
7516;DHT22;3799;47.184;8.538;2022-12-07T10:39:50;4.30;99.90
7516;DHT22;3799;47.184;8.538;2022-12-07T10:42:25;4.60;99.90
7516;DHT22;3799;47.184;8.538;2022-12-07T10:45:13;4.40;99.90
7516;DHT22;3799;47.184;8.538;2022-12-07T10:47:44;4.70;99.90
7516;DHT22;3799;47.184;8.538;2022-12-07T10:55:23;4.50;99.90
7516;DHT22;3799;47.184;8.538;2022-12-07T10:58:01;4.50;99.90
7516;DHT22;3799;47.184;8.538;2022-12-07T11:00:40;4.60;99.90
7516;DHT22;3799;47.184;8.538;2022-12-07T11:08:39;4.50;99.90
7516;DHT22;3799;47.184;8.538;2022-12-07T11:11:13;4.50;99.90
7516;DHT22;3799;47.184;8.538;2022-12-07T11:16:27;4.50;99.90
7516;DHT22;3799;47.184;8.538;2022-12-07T11:29:38;4.50;99.90
7516;DHT22;3799;47.184;8.538;2022-12-07T11:32:11;4.50;99.90
7516;DHT22;3799;47.184;8.538;2022-12-07T11:37:13;4.50;99.90
7516;DHT22;3799;47.184;8.538;2022-12-07T11:39:45;4.70;99.90
7516;DHT22;3799;47.184;8.538;2022-12-07T11:42:22;4.60;99.90
7516;DHT22;3799;47.184;8.538;2022-12-07T11:47:59;4.50;99.90
7516;DHT22;3799;47.184;8.538;2022-12-07T11:50:23;4.40;99.90
7516;DHT22;3799;47.184;8.538;2022-12-07T12:00:43;4.40;99.90
7516;DHT22;3799;47.184;8.538;2022-12-07T12:03:11;4.70;99.90
7516;DHT22;3799;47.184;8.538;2022-12-07T12:05:38;4.80;99.90
7516;DHT22;3799;47.184;8.538;2022-12-07T12:10:40;4.50;99.90
7516;DHT22;3799;47.184;8.538;2022-12-07T12:20:53;4.60;99.90
7516;DHT22;3799;47.184;8.538;2022-12-07T12:23:33;4.60;99.90
7516;DHT22;3799;47.184;8.538;2022-12-07T12:26:01;4.50;99.90
7516;DHT22;3799;47.184;8.538;2022-12-07T12:28:29;4.60;99.90
7516;DHT22;3799;47.184;8.538;2022-12-07T12:33:31;4.70;99.90
7516;DHT22;3799;47.184;8.538;2022-12-07T12:44:00;4.50;99.90
7516;DHT22;3799;47.184;8.538;2022-12-07T12:51:48;4.70;99.90
7516;DHT22;3799;47.184;8.538;2022-12-07T12:54:18;4.50;99.90
7516;DHT22;3799;47.184;8.538;2022-12-07T12:59:29;4.50;99.90
7516;DHT22;3799;47.184;8.538;2022-12-07T13:04:37;4.30;99.90
7516;DHT22;3799;47.184;8.538;2022-12-07T13:07:04;4.60;99.90
7516;DHT22;3799;47.184;8.538;2022-12-07T13:09:30;4.60;99.90
7516;DHT22;3799;47.184;8.538;2022-12-07T13:11:59;4.50;99.90
7516;DHT22;3799;47.184;8.538;2022-12-07T13:14:43;4.70;99.90
7516;DHT22;3799;47.184;8.538;2022-12-07T13:20:38;4.70;99.90
7516;DHT22;3799;47.184;8.538;2022-12-07T13:22:55;4.70;99.90
7516;DHT22;3799;47.184;8.538;2022-12-07T13:25:28;4.90;99.90
7516;DHT22;3799;47.184;8.538;2022-12-07T13:28:00;4.80;99.90
7516;DHT22;3799;47.184;8.538;2022-12-07T13:30:26;4.60;99.90
7516;DHT22;3799;47.184;8.538;2022-12-07T13:32:57;4.60;99.90
7516;DHT22;3799;47.184;8.538;2022-12-07T13:35:34;4.80;99.90
7516;DHT22;3799;47.184;8.538;2022-12-07T13:38:04;4.70;99.90
7516;DHT22;3799;47.184;8.538;2022-12-07T13:40:30;4.90;99.90
7516;DHT22;3799;47.184;8.538;2022-12-07T13:43:00;4.60;99.90
7516;DHT22;3799;47.184;8.538;2022-12-07T13:45:32;4.60;99.90
7516;DHT22;3799;47.184;8.538;2022-12-07T13:50:58;4.60;99.90
7516;DHT22;3799;47.184;8.538;2022-12-07T13:53:24;4.50;99.90
7516;DHT22;3799;47.184;8.538;2022-12-07T13:55:53;4.40;99.90
7516;DHT22;3799;47.184;8.538;2022-12-07T13:58:19;4.50;99.90
7516;DHT22;3799;47.184;8.538;2022-12-07T14:00:44;4.70;99.90
7516;DHT22;3799;47.184;8.538;2022-12-07T14:05:40;4.60;99.90
7516;DHT22;3799;47.184;8.538;2022-12-07T14:08:21;4.50;99.90
7516;DHT22;3799;47.184;8.538;2022-12-07T14:13:26;4.60;99.90
7516;DHT22;3799;47.184;8.538;2022-12-07T14:15:52;4.70;99.90
7516;DHT22;3799;47.184;8.538;2022-12-07T14:18:38;4.70;99.90
7516;DHT22;3799;47.184;8.538;2022-12-07T14:23:36;4.60;99.90
7516;DHT22;3799;47.184;8.538;2022-12-07T14:26:18;4.70;99.90
7516;DHT22;3799;47.184;8.538;2022-12-07T14:28:44;4.60;99.90
7516;DHT22;3799;47.184;8.538;2022-12-07T14:31:14;4.50;99.90
7516;DHT22;3799;47.184;8.538;2022-12-07T14:33:40;4.60;99.90
7516;DHT22;3799;47.184;8.538;2022-12-07T14:36:08;4.50;99.90
7516;DHT22;3799;47.184;8.538;2022-12-07T14:38:34;4.60;99.90
7516;DHT22;3799;47.184;8.538;2022-12-07T14:41:00;4.40;99.90
7516;DHT22;3799;47.184;8.538;2022-12-07T14:43:44;4.40;99.90
7516;DHT22;3799;47.184;8.538;2022-12-07T14:46:10;4.50;99.90
7516;DHT22;3799;47.184;8.538;2022-12-07T14:48:35;4.50;99.90
7516;DHT22;3799;47.184;8.538;2022-12-07T14:51:01;4.60;99.90
7516;DHT22;3799;47.184;8.538;2022-12-07T14:53:38;4.50;99.90
7516;DHT22;3799;47.184;8.538;2022-12-07T14:56:04;4.60;99.90
7516;DHT22;3799;47.184;8.538;2022-12-07T14:58:33;4.50;99.90
7516;DHT22;3799;47.184;8.538;2022-12-07T15:00:59;4.70;99.90
7516;DHT22;3799;47.184;8.538;2022-12-07T15:03:25;4.60;99.90
7516;DHT22;3799;47.184;8.538;2022-12-07T15:05:50;4.40;99.90
7516;DHT22;3799;47.184;8.538;2022-12-07T15:08:16;4.40;99.90
7516;DHT22;3799;47.184;8.538;2022-12-07T15:10:43;4.50;99.90
7516;DHT22;3799;47.184;8.538;2022-12-07T15:13:08;4.20;99.90
7516;DHT22;3799;47.184;8.538;2022-12-07T15:15:53;4.40;99.90
7516;DHT22;3799;47.184;8.538;2022-12-07T15:18:19;4.30;99.90
7516;DHT22;3799;47.184;8.538;2022-12-07T15:20:46;4.50;99.90
7516;DHT22;3799;47.184;8.538;2022-12-07T15:23:12;4.70;99.90
7516;DHT22;3799;47.184;8.538;2022-12-07T15:25:41;4.40;99.90
7516;DHT22;3799;47.184;8.538;2022-12-07T15:28:07;4.60;99.90
7516;DHT22;3799;47.184;8.538;2022-12-07T15:30:33;4.50;99.90
7516;DHT22;3799;47.184;8.538;2022-12-07T15:32:58;4.60;99.90
7516;DHT22;3799;47.184;8.538;2022-12-07T15:35:27;4.60;99.90
7516;DHT22;3799;47.184;8.538;2022-12-07T15:37:53;4.40;99.90
7516;DHT22;3799;47.184;8.538;2022-12-07T15:40:19;4.50;99.90
7516;DHT22;3799;47.184;8.538;2022-12-07T15:42:44;4.40;99.90
7516;DHT22;3799;47.184;8.538;2022-12-07T15:45:10;4.40;99.90
7516;DHT22;3799;47.184;8.538;2022-12-07T15:47:37;4.30;99.90
7516;DHT22;3799;47.184;8.538;2022-12-07T15:50:04;4.30;99.90
7516;DHT22;3799;47.184;8.538;2022-12-07T15:52:30;4.20;99.90
7516;DHT22;3799;47.184;8.538;2022-12-07T15:54:56;4.40;99.90
7516;DHT22;3799;47.184;8.538;2022-12-07T15:57:22;4.40;99.90
7516;DHT22;3799;47.184;8.538;2022-12-07T15:59:48;4.40;99.90
7516;DHT22;3799;47.184;8.538;2022-12-07T16:02:13;4.30;99.90
7516;DHT22;3799;47.184;8.538;2022-12-07T16:04:39;4.60;99.90
7516;DHT22;3799;47.184;8.538;2022-12-07T16:07:10;4.50;99.90
7516;DHT22;3799;47.184;8.538;2022-12-07T16:09:37;4.40;99.90
7516;DHT22;3799;47.184;8.538;2022-12-07T16:12:03;4.50;99.90
7516;DHT22;3799;47.184;8.538;2022-12-07T16:14:29;4.60;99.90
7516;DHT22;3799;47.184;8.538;2022-12-07T16:16:54;4.50;99.90
7516;DHT22;3799;47.184;8.538;2022-12-07T16:19:20;4.50;99.90
7516;DHT22;3799;47.184;8.538;2022-12-07T16:21:46;4.50;99.90
7516;DHT22;3799;47.184;8.538;2022-12-07T16:24:12;4.60;99.90
7516;DHT22;3799;47.184;8.538;2022-12-07T16:26:40;4.30;99.90
7516;DHT22;3799;47.184;8.538;2022-12-07T16:29:06;4.30;99.90
7516;DHT22;3799;47.184;8.538;2022-12-07T16:31:31;4.40;99.90
7516;DHT22;3799;47.184;8.538;2022-12-07T16:33:58;4.10;99.90
7516;DHT22;3799;47.184;8.538;2022-12-07T16:36:23;4.20;99.90
7516;DHT22;3799;47.184;8.538;2022-12-07T16:38:50;4.60;99.90
7516;DHT22;3799;47.184;8.538;2022-12-07T16:41:16;4.50;99.90
7516;DHT22;3799;47.184;8.538;2022-12-07T16:43:42;4.50;99.90
7516;DHT22;3799;47.184;8.538;2022-12-07T16:46:07;4.30;99.90
7516;DHT22;3799;47.184;8.538;2022-12-07T16:48:37;4.40;99.90
7516;DHT22;3799;47.184;8.538;2022-12-07T16:51:06;4.40;99.90
7516;DHT22;3799;47.184;8.538;2022-12-07T16:53:34;4.10;99.90
7516;DHT22;3799;47.184;8.538;2022-12-07T16:56:00;4.40;99.90
7516;DHT22;3799;47.184;8.538;2022-12-07T16:58:25;4.20;99.90
7516;DHT22;3799;47.184;8.538;2022-12-07T17:00:51;4.50;99.90
7516;DHT22;3799;47.184;8.538;2022-12-07T17:03:17;4.10;99.90
7516;DHT22;3799;47.184;8.538;2022-12-07T17:05:51;4.30;99.90
7516;DHT22;3799;47.184;8.538;2022-12-07T17:08:18;4.30;99.90
7516;DHT22;3799;47.184;8.538;2022-12-07T17:10:44;4.20;99.90
7516;DHT22;3799;47.184;8.538;2022-12-07T17:13:10;4.20;99.90
7516;DHT22;3799;47.184;8.538;2022-12-07T17:15:55;4.30;99.90
7516;DHT22;3799;47.184;8.538;2022-12-07T17:18:21;4.20;99.90
7516;DHT22;3799;47.184;8.538;2022-12-07T17:20:46;4.20;99.90
7516;DHT22;3799;47.184;8.538;2022-12-07T17:23:12;4.10;99.90
7516;DHT22;3799;47.184;8.538;2022-12-07T17:25:37;4.00;99.90
7516;DHT22;3799;47.184;8.538;2022-12-07T17:28:03;4.20;99.90
7516;DHT22;3799;47.184;8.538;2022-12-07T17:30:29;4.10;99.90
7516;DHT22;3799;47.184;8.538;2022-12-07T17:32:54;4.20;99.90
7516;DHT22;3799;47.184;8.538;2022-12-07T17:35:20;4.30;99.90
7516;DHT22;3799;47.184;8.538;2022-12-07T17:37:45;4.10;99.90
7516;DHT22;3799;47.184;8.538;2022-12-07T17:40:11;4.10;99.90
7516;DHT22;3799;47.184;8.538;2022-12-07T17:42:37;4.00;99.90
7516;DHT22;3799;47.184;8.538;2022-12-07T17:45:08;4.10;99.90
7516;DHT22;3799;47.184;8.538;2022-12-07T17:47:35;4.20;99.90
7516;DHT22;3799;47.184;8.538;2022-12-07T17:50:00;4.30;99.90
7516;DHT22;3799;47.184;8.538;2022-12-07T17:52:26;4.20;99.90
7516;DHT22;3799;47.184;8.538;2022-12-07T17:55:11;4.30;99.90
7516;DHT22;3799;47.184;8.538;2022-12-07T17:57:36;4.30;99.90
7516;DHT22;3799;47.184;8.538;2022-12-07T18:00:03;4.30;99.90
7516;DHT22;3799;47.184;8.538;2022-12-07T18:02:28;4.40;99.90
7516;DHT22;3799;47.184;8.538;2022-12-07T18:04:54;4.10;99.90
7516;DHT22;3799;47.184;8.538;2022-12-07T18:07:20;4.50;99.90
7516;DHT22;3799;47.184;8.538;2022-12-07T18:09:45;4.40;99.90
7516;DHT22;3799;47.184;8.538;2022-12-07T18:12:11;4.40;99.90
7516;DHT22;3799;47.184;8.538;2022-12-07T18:14:37;4.50;99.90
7516;DHT22;3799;47.184;8.538;2022-12-07T18:17:03;4.40;99.90
7516;DHT22;3799;47.184;8.538;2022-12-07T18:19:28;4.20;99.90
7516;DHT22;3799;47.184;8.538;2022-12-07T18:21:54;4.40;99.90
7516;DHT22;3799;47.184;8.538;2022-12-07T18:24:20;4.50;99.90
7516;DHT22;3799;47.184;8.538;2022-12-07T18:26:45;4.30;99.90